Time;durP1;ratioP1;P1;durP2;ratioP2;P2;SDS_P1;SDS_P2;PMS_P1;PMS_P2;Temp;Humidity;BMP_temperature;BMP_pressure;BME280_temperature;BME280_humidity;BME280_pressure;Samples;Min_cycle;Max_cycle;Signal;HPM_P1;HPM_P2
2022/08/04 00:07:04;;;;;;;3.25;1.92;;;;;;;;;;5111412;27;20730;-61
2022/08/04 00:09:36;;;;;;;3.10;2.30;;;;;;;;;;5111119;28;20028;-62
2022/08/04 00:12:06;;;;;;;3.33;2.00;;;;;;;;;;5111464;28;20032;-61
2022/08/04 00:14:35;;;;;;;3.97;2.38;;;;;;;;;;5110466;28;20028;-62
2022/08/04 00:17:20;;;;;;;2.60;2.03;;;;;;;;;;5111074;27;20780;-62
2022/08/04 00:19:47;;;;;;;2.80;1.73;;;;;;;;;;5111393;28;20020;-62
2022/08/04 00:22:13;;;;;;;3.38;1.83;;;;;;;;;;5109577;28;20054;-62
2022/08/04 00:24:40;;;;;;;2.10;1.83;;;;;;;;;;5110056;28;20066;-62
2022/08/04 00:27:08;;;;;;;3.15;1.90;;;;;;;;;;5111373;28;20016;-62
2022/08/04 00:29:34;;;;;;;2.85;2.00;;;;;;;;;;5110846;28;20024;-62
2022/08/04 00:33:56;;;;;;;3.17;2.03;;;;;;;;;;5111464;27;20396;-61
2022/08/04 00:36:23;;;;;;;2.78;1.65;;;;;;;;;;5110951;28;20424;-61
2022/08/04 00:40:46;;;;;;;2.97;1.60;;;;;;;;;;5111548;27;20401;-61
2022/08/04 00:43:55;;;;;;;2.25;1.83;;;;;;;;;;5111565;27;20385;-62
2022/08/04 00:46:27;;;;;;;2.40;1.63;;;;;;;;;;5111717;28;20464;-62
2022/08/04 00:48:53;;;;;;;2.95;1.75;;;;;;;;;;5111404;28;20042;-62
2022/08/04 00:51:31;;;;;;;2.83;1.80;;;;;;;;;;5110840;28;20016;-62
2022/08/04 00:54:03;;;;;;;2.42;1.83;;;;;;;;;;5111352;28;20020;-62
2022/08/04 00:57:58;;;;;;;3.45;2.40;;;;;;;;;;5111145;27;20473;-63
2022/08/04 01:02:25;;;;;;;3.20;1.88;;;;;;;;;;5111731;27;20896;-61
2022/08/04 01:05:14;;;;;;;2.42;1.90;;;;;;;;;;5111221;28;20050;-61
2022/08/04 01:08:27;;;;;;;2.47;1.83;;;;;;;;;;5112168;27;20384;-61
2022/08/04 01:11:11;;;;;;;2.95;1.90;;;;;;;;;;5110130;28;20400;-62
2022/08/04 01:13:44;;;;;;;2.47;1.60;;;;;;;;;;5109692;28;20055;-61
2022/08/04 01:19:36;;;;;;;2.60;1.52;;;;;;;;;;5111428;27;20477;-61
2022/08/04 01:22:09;;;;;;;2.63;1.70;;;;;;;;;;5111112;28;20028;-61
2022/08/04 01:24:41;;;;;;;5.10;1.92;;;;;;;;;;5111427;28;20030;-62
2022/08/04 01:27:16;;;;;;;3.17;2.08;;;;;;;;;;5110837;28;20035;-62
2022/08/04 01:29:48;;;;;;;2.90;1.60;;;;;;;;;;5127019;28;20032;-62
2022/08/04 01:32:58;;;;;;;3.03;1.88;;;;;;;;;;5111516;27;20405;-61
2022/08/04 01:35:28;;;;;;;3.53;1.77;;;;;;;;;;5111562;28;20500;-61
2022/08/04 01:38:26;;;;;;;2.72;1.77;;;;;;;;;;5111704;27;20896;-63
2022/08/04 01:40:54;;;;;;;4.28;2.50;;;;;;;;;;5111002;28;20507;-61
2022/08/04 01:44:07;;;;;;;2.65;1.75;;;;;;;;;;5112155;27;20446;-61
2022/08/04 01:46:34;;;;;;;2.90;1.92;;;;;;;;;;5109809;28;20032;-61
2022/08/04 01:49:02;;;;;;;3.25;2.33;;;;;;;;;;5110029;28;20020;-61
2022/08/04 01:51:49;;;;;;;4.93;2.63;;;;;;;;;;5111663;27;20380;-62
2022/08/04 01:54:17;;;;;;;3.75;2.45;;;;;;;;;;5109927;28;20116;-61
2022/08/04 01:56:43;;;;;;;2.95;2.20;;;;;;;;;;5110089;28;20027;-61
2022/08/04 01:59:11;;;;;;;2.58;1.70;;;;;;;;;;5111268;28;20023;-61
2022/08/04 02:03:02;;;;;;;2.50;1.50;;;;;;;;;;5070877;28;21100;-62
2022/08/04 02:05:28;;;;;;;3.55;2.13;;;;;;;;;;5070809;28;20025;-62
2022/08/04 02:08:09;;;;;;;4.20;2.40;;;;;;;;;;5069162;28;20021;-62
2022/08/04 02:12:52;;;;;;;6.50;2.58;;;;;;;;;;5111554;27;20397;-62
2022/08/04 02:19:10;;;;;;;5.25;2.47;;;;;;;;;;5070898;27;20473;-62
2022/08/04 02:21:39;;;;;;;5.22;2.58;;;;;;;;;;5069494;28;20454;-61
2022/08/04 02:24:06;;;;;;;4.65;2.33;;;;;;;;;;5069094;28;20449;-62
2022/08/04 02:26:34;;;;;;;5.38;2.53;;;;;;;;;;5069434;28;20067;-62
2022/08/04 02:29:00;;;;;;;5.50;3.08;;;;;;;;;;5070287;28;20033;-62
2022/08/04 02:31:31;;;;;;;6.03;2.97;;;;;;;;;;5069436;28;20021;-62
2022/08/04 02:34:16;;;;;;;5.18;2.55;;;;;;;;;;5070754;28;20020;-63
2022/08/04 02:36:43;;;;;;;5.05;2.40;;;;;;;;;;5068920;28;20048;-62
2022/08/04 02:39:10;;;;;;;6.57;2.97;;;;;;;;;;5070420;28;20032;-62
2022/08/04 02:41:38;;;;;;;9.23;4.05;;;;;;;;;;5070385;28;20051;-62
2022/08/04 02:44:06;;;;;;;10.40;4.68;;;;;;;;;;5069947;28;20020;-61
2022/08/04 02:49:01;;;;;;;10.13;4.15;;;;;;;;;;5111467;27;20388;-61
2022/08/04 02:51:29;;;;;;;10.93;4.10;;;;;;;;;;5110877;28;20084;-61
2022/08/04 02:53:57;;;;;;;5.75;3.10;;;;;;;;;;5111323;28;20034;-61
2022/08/04 02:56:24;;;;;;;6.90;3.60;;;;;;;;;;5109972;28;20539;-61
2022/08/04 02:58:57;;;;;;;6.90;2.90;;;;;;;;;;5110848;28;20476;-61
2022/08/04 03:01:45;;;;;;;5.97;3.10;;;;;;;;;;5112189;27;20909;-62
2022/08/04 03:04:17;;;;;;;9.15;3.38;;;;;;;;;;5110985;28;20030;-61
2022/08/04 03:07:09;;;;;;;6.88;3.45;;;;;;;;;;5110061;28;20028;-62
2022/08/04 03:09:41;;;;;;;3.50;2.30;;;;;;;;;;5111423;28;20016;-62
2022/08/04 03:14:58;;;;;;;4.15;2.22;;;;;;;;;;5112012;27;20884;-61
2022/08/04 03:17:28;;;;;;;4.50;2.47;;;;;;;;;;5111337;28;20043;-61
2022/08/04 03:20:12;;;;;;;6.28;2.60;;;;;;;;;;5110922;28;20447;-61
2022/08/04 03:22:49;;;;;;;3.47;2.05;;;;;;;;;;5111235;28;20024;-62
2022/08/04 03:25:21;;;;;;;5.63;2.85;;;;;;;;;;5110929;28;20024;-61
2022/08/04 03:28:08;;;;;;;5.33;2.50;;;;;;;;;;5109862;28;20484;-62
2022/08/04 03:31:51;;;;;;;2.85;2.00;;;;;;;;;;5111363;27;20738;-61
2022/08/04 03:34:27;;;;;;;3.75;2.38;;;;;;;;;;5110960;28;20391;-62
2022/08/04 03:36:59;;;;;;;3.13;2.20;;;;;;;;;;5111366;28;20024;-62
2022/08/04 03:39:32;;;;;;;6.35;2.58;;;;;;;;;;5111059;28;20016;-62
2022/08/04 03:42:01;;;;;;;3.47;2.30;;;;;;;;;;5111437;28;20031;-62
2022/08/04 03:44:42;;;;;;;5.05;2.60;;;;;;;;;;5111353;28;20020;-62
2022/08/04 03:47:27;;;;;;;7.65;2.45;;;;;;;;;;5111134;27;20423;-61
2022/08/04 03:54:46;;;;;;;4.72;2.25;;;;;;;;;;5111187;27;20488;-61
2022/08/04 03:59:41;;;;;;;3.72;2.47;;;;;;;;;;5112213;27;20408;-63
2022/08/04 04:06:28;;;;;;;3.83;2.38;;;;;;;;;;5111349;27;20396;-61
2022/08/04 04:09:09;;;;;;;4.13;1.88;;;;;;;;;;5110956;28;20541;-62
2022/08/04 04:12:07;;;;;;;4.20;2.10;;;;;;;;;;5111574;28;20031;-61
2022/08/04 04:14:42;;;;;;;4.60;2.30;;;;;;;;;;5111027;28;20578;-62
2022/08/04 04:17:13;;;;;;;3.47;2.05;;;;;;;;;;5111071;28;20555;-62
2022/08/04 04:19:44;;;;;;;3.45;1.85;;;;;;;;;;5111241;28;20028;-62
2022/08/04 04:27:03;;;;;;;3.88;2.03;;;;;;;;;;5111582;27;20461;-61
2022/08/04 04:29:32;;;;;;;2.78;1.95;;;;;;;;;;5110873;28;20508;-61
2022/08/04 04:32:08;;;;;;;2.53;2.00;;;;;;;;;;5111275;28;20039;-62
2022/08/04 04:37:17;;;;;;;2.40;1.75;;;;;;;;;;5111168;27;20412;-62
2022/08/04 04:39:55;;;;;;;4.10;2.20;;;;;;;;;;5111521;28;20106;-61
2022/08/04 04:42:21;;;;;;;6.13;2.63;;;;;;;;;;5111194;28;20061;-61
2022/08/04 04:44:50;;;;;;;3.53;2.30;;;;;;;;;;5111225;28;20496;-63
2022/08/04 04:47:31;;;;;;;5.18;2.53;;;;;;;;;;5111521;28;20020;-64
2022/08/04 04:50:00;;;;;;;4.78;2.20;;;;;;;;;;5111222;28;20028;-64
2022/08/04 04:52:30;;;;;;;3.60;2.35;;;;;;;;;;5111184;28;20494;-63
2022/08/04 04:58:00;;;;;;;4.30;2.05;;;;;;;;;;5111176;27;20940;-62
2022/08/04 05:00:39;;;;;;;2.88;1.80;;;;;;;;;;5127111;28;20055;-62
2022/08/04 05:03:09;;;;;;;2.05;1.60;;;;;;;;;;5111549;28;20066;-62
2022/08/04 05:07:07;;;;;;;3.03;1.98;;;;;;;;;;5091326;27;20479;-65
2022/08/04 05:11:01;;;;;;;3.55;1.83;;;;;;;;;;5110995;27;20422;-62
2022/08/04 05:14:09;;;;;;;2.50;1.65;;;;;;;;;;5111800;27;20409;-62
2022/08/04 05:20:01;;;;;;;4.60;2.30;;;;;;;;;;5111036;27;20396;-62
2022/08/04 05:22:59;;;;;;;3.58;2.20;;;;;;;;;;5111865;27;20457;-62
2022/08/04 05:28:16;;;;;;;4.25;2.20;;;;;;;;;;5111500;27;20462;-63
2022/08/04 05:30:49;;;;;;;2.95;1.95;;;;;;;;;;5111273;28;20110;-63
2022/08/04 05:39:55;;;;;;;2.97;2.08;;;;;;;;;;5111376;27;20450;-62
2022/08/04 05:44:30;;;;;;;3.05;1.83;;;;;;;;;;5071614;28;20469;-62
2022/08/04 05:46:57;;;;;;;2.53;1.73;;;;;;;;;;5070436;28;20028;-62
2022/08/04 05:49:24;;;;;;;4.68;1.80;;;;;;;;;;5070838;28;20025;-63
2022/08/04 05:51:51;;;;;;;3.45;1.70;;;;;;;;;;5069523;28;20024;-63
2022/08/04 05:54:18;;;;;;;3.65;2.17;;;;;;;;;;5068886;28;20451;-63
2022/08/04 05:56:44;;;;;;;3.90;2.40;;;;;;;;;;5070598;28;20021;-63
2022/08/04 05:59:11;;;;;;;3.15;1.80;;;;;;;;;;5069351;28;20384;-63
2022/08/04 06:01:39;;;;;;;3.65;2.40;;;;;;;;;;5070140;28;20055;-63
2022/08/04 06:04:06;;;;;;;4.07;2.28;;;;;;;;;;5070373;28;20037;-63
2022/08/04 06:06:32;;;;;;;5.85;2.50;;;;;;;;;;5070656;28;20042;-63
2022/08/04 06:10:50;;;;;;;4.32;2.17;;;;;;;;;;5111480;27;20454;-63
2022/08/04 06:13:18;;;;;;;7.45;3.97;;;;;;;;;;5111324;28;20097;-63
2022/08/04 06:15:47;;;;;;;4.25;2.17;;;;;;;;;;5109591;28;20020;-63
2022/08/04 06:18:13;;;;;;;4.05;2.35;;;;;;;;;;5111718;28;20023;-63
2022/08/04 06:20:41;;;;;;;3.55;2.38;;;;;;;;;;5109888;28;20034;-63
2022/08/04 06:23:09;;;;;;;4.22;2.30;;;;;;;;;;5110758;28;20380;-63
2022/08/04 06:25:44;;;;;;;3.63;2.20;;;;;;;;;;5109890;28;20027;-63
2022/08/04 06:28:11;;;;;;;4.75;2.20;;;;;;;;;;5110779;28;20438;-63
2022/08/04 06:30:39;;;;;;;4.03;2.00;;;;;;;;;;5110932;28;20050;-63
2022/08/04 06:33:23;;;;;;;4.43;2.25;;;;;;;;;;5109685;28;20430;-64
2022/08/04 06:35:52;;;;;;;4.10;2.10;;;;;;;;;;5110654;28;20393;-63
2022/08/04 06:38:19;;;;;;;5.32;1.80;;;;;;;;;;5109903;28;20028;-63
2022/08/04 06:42:26;;;;;;;3.38;2.03;;;;;;;;;;5111557;27;20393;-64
2022/08/04 06:44:58;;;;;;;3.17;2.00;;;;;;;;;;5111274;28;20077;-62
2022/08/04 06:47:25;;;;;;;5.03;2.35;;;;;;;;;;5111379;28;20051;-63
2022/08/04 06:49:52;;;;;;;4.93;2.10;;;;;;;;;;5110789;28;20069;-63
2022/08/04 06:52:35;;;;;;;5.45;2.50;;;;;;;;;;5111586;27;20469;-62
2022/08/04 06:55:02;;;;;;;4.32;2.00;;;;;;;;;;5111276;28;20563;-64
2022/08/04 06:57:29;;;;;;;3.65;2.28;;;;;;;;;;5110851;28;20035;-63
2022/08/04 07:02:34;;;;;;;5.28;2.30;;;;;;;;;;5071451;28;20399;-63
2022/08/04 07:05:00;;;;;;;3.42;2.08;;;;;;;;;;5070416;28;20040;-63
2022/08/04 07:07:26;;;;;;;3.72;1.83;;;;;;;;;;5069478;28;20477;-63
2022/08/04 07:10:45;;;;;;;2.83;1.95;;;;;;;;;;5173069;27;20324;-63
2022/08/04 07:13:12;;;;;;;3.05;1.90;;;;;;;;;;5152670;27;20050;-63
2022/08/04 07:16:30;;;;;;;3.60;2.05;;;;;;;;;;5111565;27;20924;-63
2022/08/04 07:18:56;;;;;;;3.08;1.95;;;;;;;;;;5126778;28;20031;-63
2022/08/04 07:21:23;;;;;;;6.22;2.20;;;;;;;;;;5111507;28;20024;-62
2022/08/04 07:23:50;;;;;;;3.05;1.85;;;;;;;;;;5111496;28;20024;-63
2022/08/04 07:27:06;;;;;;;4.40;2.25;;;;;;;;;;5110703;27;20454;-63
2022/08/04 07:29:34;;;;;;;2.63;1.75;;;;;;;;;;5110618;28;20031;-63
2022/08/04 07:32:01;;;;;;;4.72;2.22;;;;;;;;;;5110396;28;20051;-63
2022/08/04 07:34:27;;;;;;;4.30;2.10;;;;;;;;;;5111274;28;20032;-62
2022/08/04 07:38:05;;;;;;;4.53;2.20;;;;;;;;;;5110076;27;20988;-63
2022/08/04 07:40:32;;;;;;;3.20;1.95;;;;;;;;;;5110862;28;20103;-62
2022/08/04 07:42:58;;;;;;;3.55;1.90;;;;;;;;;;5110840;28;20016;-62
2022/08/04 07:48:45;;;;;;;3.40;1.75;;;;;;;;;;5069888;28;20456;-62
2022/08/04 07:51:11;;;;;;;2.75;1.73;;;;;;;;;;5069546;28;20036;-62
2022/08/04 07:53:37;;;;;;;5.93;2.60;;;;;;;;;;5069047;28;20047;-62
2022/08/04 07:56:04;;;;;;;3.70;1.92;;;;;;;;;;5070760;28;20043;-62
2022/08/04 07:58:30;;;;;;;3.35;1.98;;;;;;;;;;5069345;28;20056;-62
2022/08/04 08:00:56;;;;;;;3.80;1.90;;;;;;;;;;5068936;28;20511;-63
2022/08/04 08:03:23;;;;;;;2.38;1.48;;;;;;;;;;5070515;28;20024;-63
2022/08/04 08:05:50;;;;;;;3.55;1.63;;;;;;;;;;5070466;28;20538;-63
2022/08/04 08:08:19;;;;;;;3.30;1.85;;;;;;;;;;5065365;28;20029;-63
2022/08/04 08:12:55;;;;;;;3.90;1.67;;;;;;;;;;5110439;27;20388;-62
2022/08/04 08:15:22;;;;;;;5.30;2.10;;;;;;;;;;5110836;28;20119;-62
2022/08/04 08:17:48;;;;;;;3.83;1.95;;;;;;;;;;5111038;28;20640;-62
2022/08/04 08:20:14;;;;;;;2.08;1.48;;;;;;;;;;5097285;28;20046;-63
2022/08/04 08:22:40;;;;;;;1.20;1.10;;;;;;;;;;5097236;28;20523;-63
2022/08/04 08:25:07;;;;;;;3.22;1.45;;;;;;;;;;5111153;28;20476;-63
2022/08/04 08:27:33;;;;;;;1.65;1.30;;;;;;;;;;5110715;28;20065;-62
2022/08/04 08:29:59;;;;;;;2.10;1.42;;;;;;;;;;5111315;28;20472;-63
2022/08/04 08:32:26;;;;;;;4.35;1.58;;;;;;;;;;5109689;28;20036;-62
2022/08/04 08:34:52;;;;;;;2.72;1.65;;;;;;;;;;5109342;28;20085;-62
2022/08/04 08:37:37;;;;;;;1.95;1.42;;;;;;;;;;5110902;28;20048;-62
2022/08/04 08:40:22;;;;;;;3.70;1.70;;;;;;;;;;5109523;28;20446;-62
2022/08/04 08:43:00;;;;;;;2.33;1.30;;;;;;;;;;5094836;28;20107;-63
2022/08/04 08:45:45;;;;;;;2.00;1.30;;;;;;;;;;5093937;28;20035;-62
2022/08/04 08:48:20;;;;;;;1.80;1.45;;;;;;;;;;5110454;28;20020;-63
2022/08/04 08:50:49;;;;;;;2.03;1.30;;;;;;;;;;5110319;28;20098;-63
2022/08/04 08:53:21;;;;;;;2.35;1.30;;;;;;;;;;5110530;28;20480;-63
2022/08/04 08:56:19;;;;;;;4.22;1.52;;;;;;;;;;5110256;28;20387;-63
2022/08/04 08:58:51;;;;;;;2.58;1.50;;;;;;;;;;5076457;28;20522;-63
2022/08/04 09:01:18;;;;;;;2.20;1.30;;;;;;;;;;5110280;28;20046;-63
2022/08/04 09:04:16;;;;;;;3.72;1.33;;;;;;;;;;5105428;28;20354;-63
2022/08/04 09:06:45;;;;;;;1.85;1.30;;;;;;;;;;5076932;28;20510;-62
2022/08/04 09:09:14;;;;;;;4.25;1.58;;;;;;;;;;5088454;28;20024;-62
2022/08/04 09:11:48;;;;;;;2.03;1.60;;;;;;;;;;5087568;28;20135;-63
2022/08/04 09:14:21;;;;;;;1.90;1.30;;;;;;;;;;5089906;28;20020;-62
2022/08/04 09:16:53;;;;;;;2.45;1.60;;;;;;;;;;5088036;28;20103;-62
2022/08/04 09:19:44;;;;;;;4.05;1.85;;;;;;;;;;5089096;28;20020;-63
2022/08/04 09:22:18;;;;;;;2.67;1.52;;;;;;;;;;5087375;28;20028;-62
2022/08/04 09:24:58;;;;;;;1.92;1.40;;;;;;;;;;5075255;28;20024;-62
2022/08/04 09:27:46;;;;;;;2.60;1.63;;;;;;;;;;5074972;28;20024;-62
2022/08/04 09:30:13;;;;;;;3.30;1.60;;;;;;;;;;5075440;28;20059;-63
2022/08/04 09:32:40;;;;;;;3.03;1.30;;;;;;;;;;5073309;28;20401;-64
2022/08/04 09:35:23;;;;;;;1.52;1.35;;;;;;;;;;5074784;28;20381;-64
2022/08/04 09:38:15;;;;;;;2.45;1.42;;;;;;;;;;5075649;28;20048;-63
2022/08/04 09:40:45;;;;;;;2.97;1.50;;;;;;;;;;5074761;28;20040;-63
2022/08/04 09:43:28;;;;;;;3.30;1.58;;;;;;;;;;5075706;28;20021;-63
2022/08/04 09:46:15;;;;;;;2.10;1.70;;;;;;;;;;5075339;28;20025;-63
2022/08/04 09:48:50;;;;;;;3.38;1.95;;;;;;;;;;5073552;28;20031;-61
2022/08/04 09:51:36;;;;;;;2.33;1.38;;;;;;;;;;5075046;28;20094;-63
2022/08/04 09:54:07;;;;;;;1.85;1.40;;;;;;;;;;5074021;28;20032;-62
2022/08/04 09:56:41;;;;;;;1.85;1.23;;;;;;;;;;5073961;28;20432;-64
2022/08/04 09:59:10;;;;;;;2.97;1.60;;;;;;;;;;5075008;28;20032;-63
2022/08/04 10:01:37;;;;;;;3.13;1.48;;;;;;;;;;5075225;28;20377;-63
2022/08/04 10:04:05;;;;;;;2.63;1.38;;;;;;;;;;5073828;28;20029;-63
2022/08/04 10:06:55;;;;;;;1.95;1.23;;;;;;;;;;5074905;28;20020;-63
2022/08/04 10:09:40;;;;;;;2.75;1.52;;;;;;;;;;5064882;28;20485;-63
2022/08/04 10:12:24;;;;;;;2.70;1.55;;;;;;;;;;5075032;28;20049;-63
2022/08/04 10:15:02;;;;;;;2.33;1.40;;;;;;;;;;5074907;28;20052;-63
2022/08/04 10:17:47;;;;;;;1.50;1.20;;;;;;;;;;5075274;28;20384;-62
2022/08/04 10:20:13;;;;;;;2.20;1.42;;;;;;;;;;5073486;28;20035;-62
2022/08/04 10:22:42;;;;;;;2.67;1.55;;;;;;;;;;5075056;28;20021;-62
2022/08/04 10:25:11;;;;;;;2.05;1.50;;;;;;;;;;5075185;28;20389;-62
2022/08/04 10:27:45;;;;;;;1.35;1.20;;;;;;;;;;5074601;28;20029;-62
2022/08/04 10:30:13;;;;;;;1.63;1.17;;;;;;;;;;5075320;28;20028;-62
2022/08/04 10:32:42;;;;;;;2.10;1.35;;;;;;;;;;5074874;28;20033;-62
2022/08/04 10:35:13;;;;;;;1.85;1.50;;;;;;;;;;5073339;28;20532;-62
2022/08/04 10:37:55;;;;;;;2.72;1.65;;;;;;;;;;5074924;28;20389;-62
2022/08/04 10:40:36;;;;;;;5.93;3.25;;;;;;;;;;5074769;28;20028;-63
2022/08/04 10:43:12;;;;;;;6.40;3.30;;;;;;;;;;5074348;28;20024;-63
2022/08/04 10:45:46;;;;;;;10.20;4.43;;;;;;;;;;5074535;28;20020;-63
2022/08/04 10:48:15;;;;;;;8.77;3.00;;;;;;;;;;5074291;28;20381;-64
2022/08/04 10:50:44;;;;;;;3.90;2.10;;;;;;;;;;5074543;28;20075;-63
2022/08/04 10:53:13;;;;;;;2.45;1.58;;;;;;;;;;5074349;28;20099;-64
2022/08/04 10:55:46;;;;;;;1.83;1.45;;;;;;;;;;5072760;28;20074;-63
2022/08/04 10:58:25;;;;;;;2.17;1.20;;;;;;;;;;5074805;28;20048;-62
2022/08/04 11:00:55;;;;;;;2.15;1.48;;;;;;;;;;5074316;28;20564;-61
2022/08/04 11:03:24;;;;;;;2.67;1.63;;;;;;;;;;5072531;28;20094;-61
2022/08/04 11:05:54;;;;;;;2.40;1.35;;;;;;;;;;5072232;28;20515;-62
2022/08/04 11:08:26;;;;;;;2.22;1.30;;;;;;;;;;5074239;28;20017;-62
2022/08/04 11:10:56;;;;;;;2.58;1.30;;;;;;;;;;5073644;28;20044;-63
2022/08/04 11:13:24;;;;;;;2.40;1.42;;;;;;;;;;5073506;28;20035;-63
2022/08/04 11:15:54;;;;;;;1.92;1.33;;;;;;;;;;5074069;28;20020;-63
2022/08/04 11:18:26;;;;;;;3.17;1.35;;;;;;;;;;5072291;28;20507;-63
2022/08/04 11:20:52;;;;;;;;;;;;;;;;;;5073820;28;20082;-62
2022/08/04 11:23:20;;;;;;;3.38;1.40;;;;;;;;;;5072707;28;19908;-63
2022/08/04 11:26:04;;;;;;;1.90;1.23;;;;;;;;;;5072297;28;20024;-63
2022/08/04 11:28:46;;;;;;;1.98;1.40;;;;;;;;;;5073919;28;20021;-63
2022/08/04 11:31:13;;;;;;;3.28;1.23;;;;;;;;;;5073378;28;20116;-62
2022/08/04 11:33:57;;;;;;;2.22;1.20;;;;;;;;;;5074105;28;20036;-62
2022/08/04 11:36:26;;;;;;;2.00;1.35;;;;;;;;;;5072524;28;20116;-62
2022/08/04 11:38:59;;;;;;;1.75;1.30;;;;;;;;;;5073366;28;20122;-62
2022/08/04 11:41:30;;;;;;;1.00;0.95;;;;;;;;;;5073737;28;20012;-62
2022/08/04 11:43:57;;;;;;;2.92;1.40;;;;;;;;;;5072378;28;20472;-62
2022/08/04 11:46:41;;;;;;;2.03;1.20;;;;;;;;;;5073082;28;20491;-62
2022/08/04 11:49:10;;;;;;;2.58;1.30;;;;;;;;;;5073594;28;20035;-62
2022/08/04 11:51:37;;;;;;;1.45;1.05;;;;;;;;;;5073028;28;20365;-62
2022/08/04 11:54:04;;;;;;;2.35;1.00;;;;;;;;;;5073543;28;20365;-63
2022/08/04 11:56:31;;;;;;;1.95;1.00;;;;;;;;;;5072260;28;20024;-62
2022/08/04 11:58:58;;;;;;;3.47;1.23;;;;;;;;;;5071727;28;20020;-63
2022/08/04 12:01:27;;;;;;;1.98;1.30;;;;;;;;;;5073405;28;20060;-63
2022/08/04 12:04:02;;;;;;;1.70;1.20;;;;;;;;;;5073668;28;20099;-63
2022/08/04 12:06:40;;;;;;;1.23;1.00;;;;;;;;;;5073431;28;20017;-63
2022/08/04 12:09:12;;;;;;;1.88;1.35;;;;;;;;;;5072058;28;20048;-63
2022/08/04 12:11:57;;;;;;;2.60;1.20;;;;;;;;;;5073184;28;20056;-63
2022/08/04 12:14:30;;;;;;;1.08;0.90;;;;;;;;;;5073039;28;20032;-63
2022/08/04 12:17:03;;;;;;;2.03;1.40;;;;;;;;;;5072054;28;20028;-63
2022/08/04 12:19:33;;;;;;;1.30;0.98;;;;;;;;;;5073463;28;20017;-65
2022/08/04 12:22:01;;;;;;;1.45;1.10;;;;;;;;;;5071540;28;20489;-63
2022/08/04 12:24:36;;;;;;;1.23;0.80;;;;;;;;;;5071975;28;20393;-63
2022/08/04 12:27:10;;;;;;;4.22;1.50;;;;;;;;;;5072816;28;20028;-63
2022/08/04 12:29:40;;;;;;;2.50;1.30;;;;;;;;;;5073291;28;20040;-63
2022/08/04 12:32:11;;;;;;;2.38;1.20;;;;;;;;;;5073054;28;20033;-63
2022/08/04 12:34:43;;;;;;;2.42;1.58;;;;;;;;;;5073000;28;20021;-63
2022/08/04 12:37:09;;;;;;;;;;;;;;;;;;5072172;28;20155;-63
2022/08/04 12:39:37;;;;;;;2.90;1.42;;;;;;;;;;5073098;28;19991;-64
2022/08/04 12:42:03;;;;;;;1.95;1.20;;;;;;;;;;5071338;28;20111;-63
2022/08/04 12:44:37;;;;;;;2.67;1.30;;;;;;;;;;5072988;28;20025;-63
2022/08/04 12:47:05;;;;;;;2.65;1.27;;;;;;;;;;5072990;28;20112;-63
2022/08/04 12:49:34;;;;;;;3.28;1.40;;;;;;;;;;5072644;28;20028;-63
2022/08/04 12:52:04;;;;;;;3.17;1.20;;;;;;;;;;5072865;28;20163;-63
2022/08/04 12:54:33;;;;;;;2.42;1.20;;;;;;;;;;5073087;28;20033;-63
2022/08/04 12:57:00;;;;;;;4.55;1.33;;;;;;;;;;5072570;28;20465;-63
2022/08/04 12:59:27;;;;;;;1.50;1.15;;;;;;;;;;5076187;28;20465;-63
2022/08/04 13:01:54;;;;;;;1.23;1.02;;;;;;;;;;5076218;28;20032;-63
2022/08/04 13:04:23;;;;;;;1.67;1.20;;;;;;;;;;5076584;28;20071;-63
2022/08/04 13:06:57;;;;;;;2.00;0.98;;;;;;;;;;5076614;28;20027;-62
2022/08/04 13:09:23;;;;;;;1.20;1.02;;;;;;;;;;5076354;28;20047;-62
2022/08/04 13:11:54;;;;;;;1.75;1.23;;;;;;;;;;5076157;28;20048;-63
2022/08/04 13:14:20;;;;;;;1.80;1.20;;;;;;;;;;5076545;28;20017;-63
2022/08/04 13:16:47;;;;;;;2.30;1.30;;;;;;;;;;5074647;28;20055;-63
2022/08/04 13:19:13;;;;;;;1.63;1.00;;;;;;;;;;5076577;28;20020;-62
2022/08/04 13:21:42;;;;;;;1.77;1.10;;;;;;;;;;5076246;28;20032;-62
2022/08/04 13:24:12;;;;;;;1.10;0.95;;;;;;;;;;5075834;28;20496;-62
2022/08/04 13:26:46;;;;;;;2.55;1.42;;;;;;;;;;5076610;28;20093;-62
2022/08/04 13:29:13;;;;;;;1.58;1.20;;;;;;;;;;5076168;28;20534;-63
2022/08/04 13:31:43;;;;;;;2.17;1.30;;;;;;;;;;5075703;28;20033;-63
2022/08/04 13:34:09;;;;;;;1.83;1.15;;;;;;;;;;5076297;28;20472;-63
2022/08/04 13:36:36;;;;;;;2.67;1.40;;;;;;;;;;5074996;28;20036;-63
2022/08/04 13:39:07;;;;;;;1.95;1.05;;;;;;;;;;5074237;28;20035;-63
2022/08/04 13:41:34;;;;;;;2.10;1.40;;;;;;;;;;5075968;28;20099;-62
2022/08/04 13:44:02;;;;;;;2.58;1.70;;;;;;;;;;5074607;28;20070;-63
2022/08/04 13:46:29;;;;;;;2.28;1.60;;;;;;;;;;5076098;28;20137;-63
2022/08/04 13:49:01;;;;;;;1.92;1.30;;;;;;;;;;5076111;28;20050;-63
2022/08/04 13:51:27;;;;;;;1.90;1.38;;;;;;;;;;5075269;28;20029;-63
2022/08/04 13:53:58;;;;;;;3.70;1.77;;;;;;;;;;5075661;28;20032;-63
2022/08/04 13:56:24;;;;;;;1.60;1.25;;;;;;;;;;5075902;28;20016;-63
2022/08/04 13:58:54;;;;;;;5.13;1.52;;;;;;;;;;5075225;28;20446;-63
2022/08/04 14:01:30;;;;;;;2.70;1.48;;;;;;;;;;5075590;28;20645;-63
2022/08/04 14:03:59;;;;;;;2.45;1.60;;;;;;;;;;5075552;28;20540;-63
2022/08/04 14:06:28;;;;;;;3.15;1.73;;;;;;;;;;5073764;28;20548;-63
2022/08/04 14:08:55;;;;;;;4.40;1.83;;;;;;;;;;5075291;28;20436;-63
2022/08/04 14:11:33;;;;;;;2.75;1.67;;;;;;;;;;5075111;28;20126;-63
2022/08/04 14:14:00;;;;;;;4.13;1.70;;;;;;;;;;5073601;28;20021;-63
2022/08/04 14:16:26;;;;;;;2.28;1.50;;;;;;;;;;5075302;28;20362;-63
2022/08/04 14:19:01;;;;;;;3.85;2.17;;;;;;;;;;5075219;28;20459;-63
2022/08/04 14:21:27;;;;;;;3.28;2.00;;;;;;;;;;5074738;28;20057;-62
2022/08/04 14:23:55;;;;;;;3.13;1.70;;;;;;;;;;5073832;28;20380;-61
2022/08/04 14:26:24;;;;;;;2.53;1.52;;;;;;;;;;5074715;28;20025;-61
2022/08/04 14:28:50;;;;;;;2.85;1.77;;;;;;;;;;5073680;28;20017;-62
2022/08/04 14:31:22;;;;;;;2.25;1.70;;;;;;;;;;5074859;28;20036;-62
2022/08/04 14:33:49;;;;;;;3.57;2.00;;;;;;;;;;5075016;28;20024;-63
2022/08/04 14:36:16;;;;;;;2.67;1.63;;;;;;;;;;5074888;28;20571;-62
2022/08/04 14:38:51;;;;;;;1.73;1.20;;;;;;;;;;5074811;28;20030;-64
2022/08/04 14:41:19;;;;;;;4.47;1.80;;;;;;;;;;5073059;28;20028;-62
2022/08/04 14:44:05;;;;;;;3.05;1.65;;;;;;;;;;5074693;28;20027;-63
2022/08/04 14:46:31;;;;;;;2.20;1.60;;;;;;;;;;5073431;28;20024;-62
2022/08/04 14:49:04;;;;;;;2.92;1.77;;;;;;;;;;5074628;28;20372;-62
2022/08/04 14:51:37;;;;;;;3.08;2.10;;;;;;;;;;5074452;28;20024;-62
2022/08/04 14:54:04;;;;;;;5.35;3.42;;;;;;;;;;5074656;28;20024;-62
2022/08/04 14:56:34;;;;;;;4.05;2.40;;;;;;;;;;5074075;28;20481;-62
2022/08/04 14:59:01;;;;;;;3.30;1.90;;;;;;;;;;5074625;28;20025;-63
2022/08/04 15:01:28;;;;;;;4.82;2.63;;;;;;;;;;5073943;28;20427;-63
2022/08/04 15:03:55;;;;;;;3.60;2.15;;;;;;;;;;5074592;28;20081;-63
2022/08/04 15:06:22;;;;;;;3.70;2.00;;;;;;;;;;5074220;28;20024;-63
2022/08/04 15:08:49;;;;;;;2.42;1.80;;;;;;;;;;5073976;28;20025;-63
2022/08/04 15:11:15;;;;;;;4.85;2.72;;;;;;;;;;5073873;28;20131;-63
2022/08/04 15:13:42;;;;;;;5.35;2.53;;;;;;;;;;5074151;28;20028;-63
2022/08/04 15:16:10;;;;;;;3.55;2.20;;;;;;;;;;5073899;28;20451;-62
2022/08/04 15:18:37;;;;;;;3.17;2.03;;;;;;;;;;5074015;28;20024;-63
2022/08/04 15:21:03;;;;;;;3.53;2.25;;;;;;;;;;5073528;28;20052;-62
2022/08/04 15:23:30;;;;;;;3.22;1.75;;;;;;;;;;5073462;28;20477;-63
2022/08/04 15:25:57;;;;;;;5.13;2.70;;;;;;;;;;5073873;28;20051;-62
2022/08/04 15:28:25;;;;;;;3.83;2.17;;;;;;;;;;5072557;28;20029;-62
2022/08/04 15:30:53;;;;;;;3.25;1.70;;;;;;;;;;5073578;28;20376;-62
2022/08/04 15:33:23;;;;;;;3.13;1.45;;;;;;;;;;5073775;28;20056;-62
2022/08/04 15:35:50;;;;;;;2.20;1.40;;;;;;;;;;5073929;28;20027;-63
2022/08/04 15:38:25;;;;;;;4.90;1.75;;;;;;;;;;5073272;28;20031;-63
2022/08/04 15:40:51;;;;;;;3.80;1.67;;;;;;;;;;5074110;28;20029;-63
2022/08/04 15:43:21;;;;;;;2.20;1.58;;;;;;;;;;5073906;28;20110;-63
2022/08/04 15:45:49;;;;;;;4.18;1.77;;;;;;;;;;5073238;28;20063;-63
2022/08/04 15:48:18;;;;;;;2.05;1.55;;;;;;;;;;5072316;28;20028;-63
2022/08/04 15:50:57;;;;;;;3.17;1.40;;;;;;;;;;5073173;28;20491;-63
2022/08/04 15:53:27;;;;;;;3.47;1.52;;;;;;;;;;5073884;28;20040;-63
2022/08/04 15:55:53;;;;;;;2.53;1.48;;;;;;;;;;5073620;28;20024;-63
2022/08/04 15:58:20;;;;;;;2.38;1.50;;;;;;;;;;5073069;28;20032;-63
2022/08/04 16:00:50;;;;;;;2.80;1.60;;;;;;;;;;5073727;28;20025;-63
2022/08/04 16:03:34;;;;;;;2.50;1.48;;;;;;;;;;5073375;28;20549;-63
2022/08/04 16:06:21;;;;;;;2.08;1.38;;;;;;;;;;5071632;28;20071;-63
2022/08/04 16:08:47;;;;;;;2.90;1.13;;;;;;;;;;5072031;28;20029;-63
2022/08/04 16:11:38;;;;;;;1.83;1.17;;;;;;;;;;5071807;28;20040;-63
2022/08/04 16:14:06;;;;;;;;;;;;;;;;;;5070351;28;20036;-63
2022/08/04 16:16:38;;;;;;;1.70;1.40;;;;;;;;;;5073606;28;19912;-63
2022/08/04 16:19:05;;;;;;;1.70;0.95;;;;;;;;;;5073213;28;20035;-63
2022/08/04 16:21:33;;;;;;;2.00;1.20;;;;;;;;;;5073274;28;20464;-64
2022/08/04 16:24:07;;;;;;;1.65;1.10;;;;;;;;;;5073249;28;20021;-63
2022/08/04 16:26:37;;;;;;;1.88;1.20;;;;;;;;;;5071518;28;20556;-63
2022/08/04 16:29:22;;;;;;;1.88;0.93;;;;;;;;;;5071875;28;20112;-63
2022/08/04 16:32:08;;;;;;;1.77;0.90;;;;;;;;;;5073042;28;20060;-64
2022/08/04 16:34:35;;;;;;;2.00;1.13;;;;;;;;;;5076352;28;20021;-63
2022/08/04 16:37:03;;;;;;;1.85;1.17;;;;;;;;;;5077179;28;20473;-62